sensor_id;sensor_type;location;lat;lon;timestamp;temperature;humidity
41220;DHT22;26951;47.338;9.196;2024-02-15T00:00:38;5.40;50.50
41220;DHT22;26951;47.338;9.196;2024-02-15T00:03:22;5.40;50.20
41220;DHT22;26951;47.338;9.196;2024-02-15T00:06:06;5.40;50.00
41220;DHT22;26951;47.338;9.196;2024-02-15T00:08:50;5.10;52.80
41220;DHT22;26951;47.338;9.196;2024-02-15T00:11:36;5.00;53.00
41220;DHT22;26951;47.338;9.196;2024-02-15T00:14:19;5.10;52.50
41220;DHT22;26951;47.338;9.196;2024-02-15T00:17:04;5.10;52.90
41220;DHT22;26951;47.338;9.196;2024-02-15T00:19:48;5.00;52.70
41220;DHT22;26951;47.338;9.196;2024-02-15T00:22:32;5.10;52.50
41220;DHT22;26951;47.338;9.196;2024-02-15T00:25:17;5.10;53.20
41220;DHT22;26951;47.338;9.196;2024-02-15T00:28:17;5.10;53.20
41220;DHT22;26951;47.338;9.196;2024-02-15T00:31:01;5.10;52.40
41220;DHT22;26951;47.338;9.196;2024-02-15T00:33:46;5.10;52.80
41220;DHT22;26951;47.338;9.196;2024-02-15T00:36:31;5.10;52.50
41220;DHT22;26951;47.338;9.196;2024-02-15T00:39:16;5.10;52.90
41220;DHT22;26951;47.338;9.196;2024-02-15T00:42:02;5.10;53.60
41220;DHT22;26951;47.338;9.196;2024-02-15T00:44:47;5.10;52.90
41220;DHT22;26951;47.338;9.196;2024-02-15T00:47:31;5.20;52.90
41220;DHT22;26951;47.338;9.196;2024-02-15T00:50:17;5.10;53.30
41220;DHT22;26951;47.338;9.196;2024-02-15T00:53:01;5.10;52.80
41220;DHT22;26951;47.338;9.196;2024-02-15T00:55:45;5.20;52.40
41220;DHT22;26951;47.338;9.196;2024-02-15T00:58:30;5.30;51.70
41220;DHT22;26951;47.338;9.196;2024-02-15T01:01:14;5.30;50.90
41220;DHT22;26951;47.338;9.196;2024-02-15T01:03:59;5.20;50.20
41220;DHT22;26951;47.338;9.196;2024-02-15T01:06:43;5.10;50.50
41220;DHT22;26951;47.338;9.196;2024-02-15T01:09:27;5.10;50.70
41220;DHT22;26951;47.338;9.196;2024-02-15T01:12:11;5.00;50.00
41220;DHT22;26951;47.338;9.196;2024-02-15T01:14:55;4.90;49.40
41220;DHT22;26951;47.338;9.196;2024-02-15T01:17:40;4.80;50.40
41220;DHT22;26951;47.338;9.196;2024-02-15T01:20:24;4.70;50.20
41220;DHT22;26951;47.338;9.196;2024-02-15T01:23:08;4.60;50.60
41220;DHT22;26951;47.338;9.196;2024-02-15T01:25:53;4.50;52.40
41220;DHT22;26951;47.338;9.196;2024-02-15T01:28:37;4.50;52.30
41220;DHT22;26951;47.338;9.196;2024-02-15T01:31:22;4.40;53.70
41220;DHT22;26951;47.338;9.196;2024-02-15T01:34:06;4.50;52.30
41220;DHT22;26951;47.338;9.196;2024-02-15T01:36:50;4.40;53.30
41220;DHT22;26951;47.338;9.196;2024-02-15T01:39:34;4.30;55.00
41220;DHT22;26951;47.338;9.196;2024-02-15T01:42:18;4.30;55.00
41220;DHT22;26951;47.338;9.196;2024-02-15T01:45:03;4.30;55.70
41220;DHT22;26951;47.338;9.196;2024-02-15T01:47:49;4.30;55.70
41220;DHT22;26951;47.338;9.196;2024-02-15T01:50:34;4.30;56.10
41220;DHT22;26951;47.338;9.196;2024-02-15T01:53:19;4.40;56.60
41220;DHT22;26951;47.338;9.196;2024-02-15T01:56:03;4.40;56.20
41220;DHT22;26951;47.338;9.196;2024-02-15T01:58:48;4.40;55.10
41220;DHT22;26951;47.338;9.196;2024-02-15T02:04:03;4.50;54.60
41220;DHT22;26951;47.338;9.196;2024-02-15T02:06:47;4.60;53.30
41220;DHT22;26951;47.338;9.196;2024-02-15T02:09:31;4.60;52.40
41220;DHT22;26951;47.338;9.196;2024-02-15T02:12:15;4.60;52.70
41220;DHT22;26951;47.338;9.196;2024-02-15T02:15:00;4.50;52.00
41220;DHT22;26951;47.338;9.196;2024-02-15T02:17:50;4.50;51.60
41220;DHT22;26951;47.338;9.196;2024-02-15T02:20:38;4.40;51.80
41220;DHT22;26951;47.338;9.196;2024-02-15T02:23:26;4.30;53.10
41220;DHT22;26951;47.338;9.196;2024-02-15T02:26:10;4.30;52.80
41220;DHT22;26951;47.338;9.196;2024-02-15T02:28:54;4.30;52.50
41220;DHT22;26951;47.338;9.196;2024-02-15T02:31:38;4.20;52.10
41220;DHT22;26951;47.338;9.196;2024-02-15T02:34:22;4.20;52.60
41220;DHT22;26951;47.338;9.196;2024-02-15T02:37:07;4.10;52.10
41220;DHT22;26951;47.338;9.196;2024-02-15T02:39:51;4.10;52.00
41220;DHT22;26951;47.338;9.196;2024-02-15T02:42:46;4.00;52.00
41220;DHT22;26951;47.338;9.196;2024-02-15T02:45:30;4.00;52.20
41220;DHT22;26951;47.338;9.196;2024-02-15T02:48:14;3.90;53.50
41220;DHT22;26951;47.338;9.196;2024-02-15T02:50:58;3.90;55.20
41220;DHT22;26951;47.338;9.196;2024-02-15T02:53:43;3.80;58.70
41220;DHT22;26951;47.338;9.196;2024-02-15T02:56:27;3.80;57.50
41220;DHT22;26951;47.338;9.196;2024-02-15T02:59:11;3.90;57.30
41220;DHT22;26951;47.338;9.196;2024-02-15T03:01:56;3.90;56.50
41220;DHT22;26951;47.338;9.196;2024-02-15T03:04:41;4.00;55.20
41220;DHT22;26951;47.338;9.196;2024-02-15T03:07:25;3.90;54.30
41220;DHT22;26951;47.338;9.196;2024-02-15T03:10:10;3.90;54.30
41220;DHT22;26951;47.338;9.196;2024-02-15T03:12:57;3.80;54.60
41220;DHT22;26951;47.338;9.196;2024-02-15T03:15:41;3.80;54.60
41220;DHT22;26951;47.338;9.196;2024-02-15T03:18:25;3.70;55.20
41220;DHT22;26951;47.338;9.196;2024-02-15T03:21:10;3.60;56.40
41220;DHT22;26951;47.338;9.196;2024-02-15T03:23:54;3.60;57.80
41220;DHT22;26951;47.338;9.196;2024-02-15T03:26:38;3.70;56.80
41220;DHT22;26951;47.338;9.196;2024-02-15T03:29:24;3.70;56.40
41220;DHT22;26951;47.338;9.196;2024-02-15T03:32:09;3.70;55.80
41220;DHT22;26951;47.338;9.196;2024-02-15T03:34:54;3.70;55.10
41220;DHT22;26951;47.338;9.196;2024-02-15T03:37:39;3.60;54.90
41220;DHT22;26951;47.338;9.196;2024-02-15T03:40:24;3.60;55.20
41220;DHT22;26951;47.338;9.196;2024-02-15T03:43:10;3.50;55.20
41220;DHT22;26951;47.338;9.196;2024-02-15T03:45:54;3.50;55.30
41220;DHT22;26951;47.338;9.196;2024-02-15T03:48:41;3.50;55.40
41220;DHT22;26951;47.338;9.196;2024-02-15T03:51:26;3.40;55.40
41220;DHT22;26951;47.338;9.196;2024-02-15T03:54:10;3.40;55.70
41220;DHT22;26951;47.338;9.196;2024-02-15T03:56:54;3.40;55.30
41220;DHT22;26951;47.338;9.196;2024-02-15T03:59:41;3.30;57.00
41220;DHT22;26951;47.338;9.196;2024-02-15T04:02:26;3.30;57.40
41220;DHT22;26951;47.338;9.196;2024-02-15T04:05:10;3.40;56.40
41220;DHT22;26951;47.338;9.196;2024-02-15T04:07:56;3.30;55.90
41220;DHT22;26951;47.338;9.196;2024-02-15T04:10:40;3.30;55.80
41220;DHT22;26951;47.338;9.196;2024-02-15T04:13:24;3.30;56.20
41220;DHT22;26951;47.338;9.196;2024-02-15T04:16:08;3.30;56.00
41220;DHT22;26951;47.338;9.196;2024-02-15T04:18:53;3.30;56.70
41220;DHT22;26951;47.338;9.196;2024-02-15T04:21:37;3.30;55.60
41220;DHT22;26951;47.338;9.196;2024-02-15T04:24:23;3.20;56.30
41220;DHT22;26951;47.338;9.196;2024-02-15T04:27:07;3.10;56.60
41220;DHT22;26951;47.338;9.196;2024-02-15T04:29:52;3.10;57.00
41220;DHT22;26951;47.338;9.196;2024-02-15T04:32:36;3.10;56.90
41220;DHT22;26951;47.338;9.196;2024-02-15T04:35:20;3.10;56.90
41220;DHT22;26951;47.338;9.196;2024-02-15T04:38:05;3.10;56.70
41220;DHT22;26951;47.338;9.196;2024-02-15T04:40:52;3.10;56.70
41220;DHT22;26951;47.338;9.196;2024-02-15T04:43:37;3.10;55.90
41220;DHT22;26951;47.338;9.196;2024-02-15T04:46:24;3.10;56.40
41220;DHT22;26951;47.338;9.196;2024-02-15T04:49:08;3.00;56.10
41220;DHT22;26951;47.338;9.196;2024-02-15T04:51:54;3.00;56.60
41220;DHT22;26951;47.338;9.196;2024-02-15T04:54:38;3.00;56.70
41220;DHT22;26951;47.338;9.196;2024-02-15T04:57:23;3.00;57.00
41220;DHT22;26951;47.338;9.196;2024-02-15T05:00:07;2.90;60.40
41220;DHT22;26951;47.338;9.196;2024-02-15T05:02:55;2.90;59.80
41220;DHT22;26951;47.338;9.196;2024-02-15T05:05:39;3.00;58.80
41220;DHT22;26951;47.338;9.196;2024-02-15T05:08:23;3.00;59.10
41220;DHT22;26951;47.338;9.196;2024-02-15T05:11:09;3.10;59.80
41220;DHT22;26951;47.338;9.196;2024-02-15T05:13:59;3.10;57.50
41220;DHT22;26951;47.338;9.196;2024-02-15T05:16:43;3.00;57.50
41220;DHT22;26951;47.338;9.196;2024-02-15T05:19:27;3.00;56.70
41220;DHT22;26951;47.338;9.196;2024-02-15T05:22:11;3.00;56.40
41220;DHT22;26951;47.338;9.196;2024-02-15T05:24:55;3.00;56.40
41220;DHT22;26951;47.338;9.196;2024-02-15T05:27:40;3.00;56.20
41220;DHT22;26951;47.338;9.196;2024-02-15T05:30:26;2.90;56.10
41220;DHT22;26951;47.338;9.196;2024-02-15T05:33:10;2.80;56.60
41220;DHT22;26951;47.338;9.196;2024-02-15T05:35:54;2.80;56.60
41220;DHT22;26951;47.338;9.196;2024-02-15T05:38:39;2.80;56.50
41220;DHT22;26951;47.338;9.196;2024-02-15T05:41:23;2.80;56.00
41220;DHT22;26951;47.338;9.196;2024-02-15T05:44:08;2.70;55.80
41220;DHT22;26951;47.338;9.196;2024-02-15T05:46:53;2.70;55.80
41220;DHT22;26951;47.338;9.196;2024-02-15T05:49:37;2.60;55.80
41220;DHT22;26951;47.338;9.196;2024-02-15T05:52:22;2.60;56.30
41220;DHT22;26951;47.338;9.196;2024-02-15T05:55:07;2.50;57.20
41220;DHT22;26951;47.338;9.196;2024-02-15T05:57:52;2.60;58.10
41220;DHT22;26951;47.338;9.196;2024-02-15T06:00:38;2.60;58.20
41220;DHT22;26951;47.338;9.196;2024-02-15T06:03:25;2.60;57.50
41220;DHT22;26951;47.338;9.196;2024-02-15T06:06:10;2.60;57.40
41220;DHT22;26951;47.338;9.196;2024-02-15T06:08:55;2.60;57.80
41220;DHT22;26951;47.338;9.196;2024-02-15T06:11:43;2.60;57.00
41220;DHT22;26951;47.338;9.196;2024-02-15T06:14:29;2.50;60.10
41220;DHT22;26951;47.338;9.196;2024-02-15T06:17:13;2.50;60.80
41220;DHT22;26951;47.338;9.196;2024-02-15T06:19:58;2.50;61.00
41220;DHT22;26951;47.338;9.196;2024-02-15T06:22:42;2.60;60.40
41220;DHT22;26951;47.338;9.196;2024-02-15T06:25:26;2.70;59.40
41220;DHT22;26951;47.338;9.196;2024-02-15T06:28:10;2.70;58.20
41220;DHT22;26951;47.338;9.196;2024-02-15T06:31:03;2.60;58.20
41220;DHT22;26951;47.338;9.196;2024-02-15T06:34:06;2.70;57.80
41220;DHT22;26951;47.338;9.196;2024-02-15T06:37:10;2.60;57.50
41220;DHT22;26951;47.338;9.196;2024-02-15T06:40:13;2.60;58.60
41220;DHT22;26951;47.338;9.196;2024-02-15T06:42:57;2.60;58.70
41220;DHT22;26951;47.338;9.196;2024-02-15T06:45:42;2.60;58.20
41220;DHT22;26951;47.338;9.196;2024-02-15T06:48:32;2.60;57.40
41220;DHT22;26951;47.338;9.196;2024-02-15T06:51:16;2.60;58.10
41220;DHT22;26951;47.338;9.196;2024-02-15T06:54:00;2.60;58.10
41220;DHT22;26951;47.338;9.196;2024-02-15T06:56:46;2.60;58.30
41220;DHT22;26951;47.338;9.196;2024-02-15T06:59:30;2.60;58.00
41220;DHT22;26951;47.338;9.196;2024-02-15T07:02:15;2.60;58.40
41220;DHT22;26951;47.338;9.196;2024-02-15T07:05:00;2.50;61.40
41220;DHT22;26951;47.338;9.196;2024-02-15T07:07:46;2.60;59.50
41220;DHT22;26951;47.338;9.196;2024-02-15T07:10:30;2.60;59.40
41220;DHT22;26951;47.338;9.196;2024-02-15T07:13:15;2.60;59.80
41220;DHT22;26951;47.338;9.196;2024-02-15T07:15:59;2.70;59.20
41220;DHT22;26951;47.338;9.196;2024-02-15T07:18:43;2.60;58.90
41220;DHT22;26951;47.338;9.196;2024-02-15T07:21:27;2.60;58.70
41220;DHT22;26951;47.338;9.196;2024-02-15T07:24:11;2.60;59.00
41220;DHT22;26951;47.338;9.196;2024-02-15T07:26:56;2.60;59.60
41220;DHT22;26951;47.338;9.196;2024-02-15T07:29:40;2.60;59.80
41220;DHT22;26951;47.338;9.196;2024-02-15T07:32:24;2.70;60.40
41220;DHT22;26951;47.338;9.196;2024-02-15T07:35:08;2.70;61.30
41220;DHT22;26951;47.338;9.196;2024-02-15T07:37:53;2.70;61.70
41220;DHT22;26951;47.338;9.196;2024-02-15T07:40:39;2.80;61.80
41220;DHT22;26951;47.338;9.196;2024-02-15T07:43:23;2.80;61.90
41220;DHT22;26951;47.338;9.196;2024-02-15T07:46:11;2.80;62.30
41220;DHT22;26951;47.338;9.196;2024-02-15T07:48:57;2.90;62.70
41220;DHT22;26951;47.338;9.196;2024-02-15T07:51:41;2.90;63.30
41220;DHT22;26951;47.338;9.196;2024-02-15T07:54:25;3.00;64.30
41220;DHT22;26951;47.338;9.196;2024-02-15T07:57:09;3.10;65.90
41220;DHT22;26951;47.338;9.196;2024-02-15T07:59:54;3.20;67.30
41220;DHT22;26951;47.338;9.196;2024-02-15T08:02:39;3.40;70.40
41220;DHT22;26951;47.338;9.196;2024-02-15T08:05:24;3.70;74.00
41220;DHT22;26951;47.338;9.196;2024-02-15T08:08:08;4.10;78.40
41220;DHT22;26951;47.338;9.196;2024-02-15T08:10:52;4.60;83.00
41220;DHT22;26951;47.338;9.196;2024-02-15T08:13:37;5.20;86.20
41220;DHT22;26951;47.338;9.196;2024-02-15T08:16:22;5.70;87.70
41220;DHT22;26951;47.338;9.196;2024-02-15T08:19:06;6.30;87.60
41220;DHT22;26951;47.338;9.196;2024-02-15T08:21:51;6.90;82.40
41220;DHT22;26951;47.338;9.196;2024-02-15T08:24:35;7.40;78.00
41220;DHT22;26951;47.338;9.196;2024-02-15T08:27:20;8.00;77.80
41220;DHT22;26951;47.338;9.196;2024-02-15T08:30:04;8.50;74.10
41220;DHT22;26951;47.338;9.196;2024-02-15T08:32:52;9.10;67.60
41220;DHT22;26951;47.338;9.196;2024-02-15T08:35:38;9.50;65.70
41220;DHT22;26951;47.338;9.196;2024-02-15T08:38:24;10.00;61.60
41220;DHT22;26951;47.338;9.196;2024-02-15T08:41:08;10.40;59.30
41220;DHT22;26951;47.338;9.196;2024-02-15T08:43:55;10.80;56.30
41220;DHT22;26951;47.338;9.196;2024-02-15T08:46:41;11.10;54.60
41220;DHT22;26951;47.338;9.196;2024-02-15T08:49:26;11.40;53.60
41220;DHT22;26951;47.338;9.196;2024-02-15T08:52:11;11.80;53.00
41220;DHT22;26951;47.338;9.196;2024-02-15T08:54:55;12.00;52.30
41220;DHT22;26951;47.338;9.196;2024-02-15T08:57:41;12.20;50.70
41220;DHT22;26951;47.338;9.196;2024-02-15T09:00:25;12.40;49.20
41220;DHT22;26951;47.338;9.196;2024-02-15T09:03:11;12.70;49.90
41220;DHT22;26951;47.338;9.196;2024-02-15T09:05:56;12.90;48.10
41220;DHT22;26951;47.338;9.196;2024-02-15T09:08:42;13.20;47.20
41220;DHT22;26951;47.338;9.196;2024-02-15T09:11:29;13.40;47.90
41220;DHT22;26951;47.338;9.196;2024-02-15T09:14:14;13.60;47.60
41220;DHT22;26951;47.338;9.196;2024-02-15T09:16:58;13.90;46.10
41220;DHT22;26951;47.338;9.196;2024-02-15T09:19:42;14.20;43.60
41220;DHT22;26951;47.338;9.196;2024-02-15T09:22:28;14.40;42.80
41220;DHT22;26951;47.338;9.196;2024-02-15T09:25:13;14.60;43.80
41220;DHT22;26951;47.338;9.196;2024-02-15T09:27:57;14.80;43.50
41220;DHT22;26951;47.338;9.196;2024-02-15T09:30:41;15.00;42.30
41220;DHT22;26951;47.338;9.196;2024-02-15T09:33:25;15.20;42.10
41220;DHT22;26951;47.338;9.196;2024-02-15T09:36:10;15.50;40.20
41220;DHT22;26951;47.338;9.196;2024-02-15T09:38:56;15.60;39.30
41220;DHT22;26951;47.338;9.196;2024-02-15T09:41:40;15.80;38.70
41220;DHT22;26951;47.338;9.196;2024-02-15T09:44:33;16.00;37.50
41220;DHT22;26951;47.338;9.196;2024-02-15T09:47:20;16.30;39.40
41220;DHT22;26951;47.338;9.196;2024-02-15T09:50:10;16.50;39.70
41220;DHT22;26951;47.338;9.196;2024-02-15T09:52:56;16.70;39.20
41220;DHT22;26951;47.338;9.196;2024-02-15T09:55:42;16.90;37.30
41220;DHT22;26951;47.338;9.196;2024-02-15T09:58:26;17.10;35.80
41220;DHT22;26951;47.338;9.196;2024-02-15T10:01:11;17.30;34.70
41220;DHT22;26951;47.338;9.196;2024-02-15T10:03:56;17.50;35.90
41220;DHT22;26951;47.338;9.196;2024-02-15T10:06:43;17.70;35.80
41220;DHT22;26951;47.338;9.196;2024-02-15T10:09:28;17.80;35.60
41220;DHT22;26951;47.338;9.196;2024-02-15T10:12:12;18.00;35.00
41220;DHT22;26951;47.338;9.196;2024-02-15T10:14:56;18.20;34.20
41220;DHT22;26951;47.338;9.196;2024-02-15T10:17:41;18.30;31.20
41220;DHT22;26951;47.338;9.196;2024-02-15T10:20:25;18.50;32.70
41220;DHT22;26951;47.338;9.196;2024-02-15T10:23:14;18.60;30.30
41220;DHT22;26951;47.338;9.196;2024-02-15T10:26:19;18.70;27.20
41220;DHT22;26951;47.338;9.196;2024-02-15T10:29:08;18.80;28.10
41220;DHT22;26951;47.338;9.196;2024-02-15T10:31:54;18.80;26.80
41220;DHT22;26951;47.338;9.196;2024-02-15T10:34:44;18.70;27.40
41220;DHT22;26951;47.338;9.196;2024-02-15T10:37:31;18.70;27.90
41220;DHT22;26951;47.338;9.196;2024-02-15T10:40:19;18.80;27.60
41220;DHT22;26951;47.338;9.196;2024-02-15T10:43:05;18.80;27.40
41220;DHT22;26951;47.338;9.196;2024-02-15T10:45:50;18.90;26.90
41220;DHT22;26951;47.338;9.196;2024-02-15T10:48:36;18.90;26.70
41220;DHT22;26951;47.338;9.196;2024-02-15T10:51:22;18.90;25.80
41220;DHT22;26951;47.338;9.196;2024-02-15T10:54:12;18.90;27.40
41220;DHT22;26951;47.338;9.196;2024-02-15T10:57:04;18.90;26.50
41220;DHT22;26951;47.338;9.196;2024-02-15T10:59:59;18.90;26.00
41220;DHT22;26951;47.338;9.196;2024-02-15T11:03:04;18.80;25.10
41220;DHT22;26951;47.338;9.196;2024-02-15T11:05:53;18.70;24.80
41220;DHT22;26951;47.338;9.196;2024-02-15T11:08:39;18.70;25.10
41220;DHT22;26951;47.338;9.196;2024-02-15T11:11:23;18.70;26.20
41220;DHT22;26951;47.338;9.196;2024-02-15T11:14:26;18.80;27.70
41220;DHT22;26951;47.338;9.196;2024-02-15T11:23:26;18.80;26.10
41220;DHT22;26951;47.338;9.196;2024-02-15T11:26:43;18.80;25.30
41220;DHT22;26951;47.338;9.196;2024-02-15T11:29:50;18.90;26.40
41220;DHT22;26951;47.338;9.196;2024-02-15T11:32:47;18.80;26.00
41220;DHT22;26951;47.338;9.196;2024-02-15T11:35:32;18.70;26.70
41220;DHT22;26951;47.338;9.196;2024-02-15T11:38:28;18.60;27.20
41220;DHT22;26951;47.338;9.196;2024-02-15T11:41:17;18.50;26.80
41220;DHT22;26951;47.338;9.196;2024-02-15T11:44:02;18.40;26.80
41220;DHT22;26951;47.338;9.196;2024-02-15T11:46:52;18.20;27.70
41220;DHT22;26951;47.338;9.196;2024-02-15T11:49:37;18.10;28.20
41220;DHT22;26951;47.338;9.196;2024-02-15T11:52:23;18.00;29.10
41220;DHT22;26951;47.338;9.196;2024-02-15T11:55:07;18.00;29.20
41220;DHT22;26951;47.338;9.196;2024-02-15T11:58:01;17.90;28.80
41220;DHT22;26951;47.338;9.196;2024-02-15T12:01:00;17.80;28.90
41220;DHT22;26951;47.338;9.196;2024-02-15T12:04:04;17.80;30.40
41220;DHT22;26951;47.338;9.196;2024-02-15T12:07:07;18.00;31.30
41220;DHT22;26951;47.338;9.196;2024-02-15T12:10:20;18.20;30.00
41220;DHT22;26951;47.338;9.196;2024-02-15T12:13:23;18.30;30.00
41220;DHT22;26951;47.338;9.196;2024-02-15T12:16:26;18.30;30.00
41220;DHT22;26951;47.338;9.196;2024-02-15T12:19:29;18.40;29.20
41220;DHT22;26951;47.338;9.196;2024-02-15T12:22:14;18.60;29.40
41220;DHT22;26951;47.338;9.196;2024-02-15T12:25:00;18.60;29.00
41220;DHT22;26951;47.338;9.196;2024-02-15T12:27:44;18.70;29.00
41220;DHT22;26951;47.338;9.196;2024-02-15T12:30:33;18.80;30.30
41220;DHT22;26951;47.338;9.196;2024-02-15T12:33:20;18.90;28.50
41220;DHT22;26951;47.338;9.196;2024-02-15T12:36:06;18.80;28.50
41220;DHT22;26951;47.338;9.196;2024-02-15T12:39:02;18.80;27.00
41220;DHT22;26951;47.338;9.196;2024-02-15T12:41:49;18.70;28.20
41220;DHT22;26951;47.338;9.196;2024-02-15T12:44:35;18.60;27.70
41220;DHT22;26951;47.338;9.196;2024-02-15T12:47:21;18.60;27.20
41220;DHT22;26951;47.338;9.196;2024-02-15T12:50:19;18.60;27.10
41220;DHT22;26951;47.338;9.196;2024-02-15T12:53:04;18.60;27.10
41220;DHT22;26951;47.338;9.196;2024-02-15T12:55:55;18.50;27.30
41220;DHT22;26951;47.338;9.196;2024-02-15T12:58:41;18.50;27.80
41220;DHT22;26951;47.338;9.196;2024-02-15T13:01:27;18.60;27.90
41220;DHT22;26951;47.338;9.196;2024-02-15T13:04:23;18.70;28.60
41220;DHT22;26951;47.338;9.196;2024-02-15T13:07:08;18.70;28.20
41220;DHT22;26951;47.338;9.196;2024-02-15T13:09:53;18.70;27.80
41220;DHT22;26951;47.338;9.196;2024-02-15T13:13:00;18.50;27.10
41220;DHT22;26951;47.338;9.196;2024-02-15T13:15:44;18.30;27.10
41220;DHT22;26951;47.338;9.196;2024-02-15T13:18:28;18.10;26.70
41220;DHT22;26951;47.338;9.196;2024-02-15T13:21:12;17.90;27.80
41220;DHT22;26951;47.338;9.196;2024-02-15T13:23:56;17.70;27.90
41220;DHT22;26951;47.338;9.196;2024-02-15T13:26:40;17.60;28.30
41220;DHT22;26951;47.338;9.196;2024-02-15T13:29:24;17.50;28.40
41220;DHT22;26951;47.338;9.196;2024-02-15T13:32:08;17.40;28.60
41220;DHT22;26951;47.338;9.196;2024-02-15T13:34:56;17.30;28.90
41220;DHT22;26951;47.338;9.196;2024-02-15T13:37:46;17.30;29.90
41220;DHT22;26951;47.338;9.196;2024-02-15T13:40:33;17.30;30.10
41220;DHT22;26951;47.338;9.196;2024-02-15T13:43:18;17.30;30.10
41220;DHT22;26951;47.338;9.196;2024-02-15T13:46:02;17.30;30.30
41220;DHT22;26951;47.338;9.196;2024-02-15T13:48:46;17.20;31.70
41220;DHT22;26951;47.338;9.196;2024-02-15T13:51:30;17.20;30.90
41220;DHT22;26951;47.338;9.196;2024-02-15T13:54:14;17.20;29.80
41220;DHT22;26951;47.338;9.196;2024-02-15T13:57:00;17.20;30.80
41220;DHT22;26951;47.338;9.196;2024-02-15T13:59:45;17.20;31.30
41220;DHT22;26951;47.338;9.196;2024-02-15T14:02:29;17.20;31.20
41220;DHT22;26951;47.338;9.196;2024-02-15T14:05:13;17.20;30.60
41220;DHT22;26951;47.338;9.196;2024-02-15T14:07:59;17.20;30.90
41220;DHT22;26951;47.338;9.196;2024-02-15T14:10:43;17.10;30.10
41220;DHT22;26951;47.338;9.196;2024-02-15T14:13:27;17.10;30.00
41220;DHT22;26951;47.338;9.196;2024-02-15T14:16:14;17.00;29.80
41220;DHT22;26951;47.338;9.196;2024-02-15T14:18:59;17.00;30.00
41220;DHT22;26951;47.338;9.196;2024-02-15T14:21:47;16.90;29.90
41220;DHT22;26951;47.338;9.196;2024-02-15T14:24:31;16.80;30.80
41220;DHT22;26951;47.338;9.196;2024-02-15T14:27:16;16.70;31.10
41220;DHT22;26951;47.338;9.196;2024-02-15T14:30:00;16.60;31.20
41220;DHT22;26951;47.338;9.196;2024-02-15T14:33:03;16.50;32.00
41220;DHT22;26951;47.338;9.196;2024-02-15T14:35:47;16.50;32.00
41220;DHT22;26951;47.338;9.196;2024-02-15T14:38:33;16.40;31.30
41220;DHT22;26951;47.338;9.196;2024-02-15T14:41:18;16.30;30.50
41220;DHT22;26951;47.338;9.196;2024-02-15T14:44:02;16.10;32.20
41220;DHT22;26951;47.338;9.196;2024-02-15T14:46:46;16.00;33.00
41220;DHT22;26951;47.338;9.196;2024-02-15T14:49:30;15.90;34.20
41220;DHT22;26951;47.338;9.196;2024-02-15T14:52:15;15.90;33.80
41220;DHT22;26951;47.338;9.196;2024-02-15T14:54:58;15.90;35.40
41220;DHT22;26951;47.338;9.196;2024-02-15T14:57:43;15.90;36.10
41220;DHT22;26951;47.338;9.196;2024-02-15T15:00:27;15.90;35.90
41220;DHT22;26951;47.338;9.196;2024-02-15T15:03:11;15.90;37.00
41220;DHT22;26951;47.338;9.196;2024-02-15T15:05:57;15.90;37.50
41220;DHT22;26951;47.338;9.196;2024-02-15T15:09:00;15.80;36.70
41220;DHT22;26951;47.338;9.196;2024-02-15T15:12:03;15.80;36.50
41220;DHT22;26951;47.338;9.196;2024-02-15T15:15:06;15.70;36.90
41220;DHT22;26951;47.338;9.196;2024-02-15T15:17:51;15.70;37.40
41220;DHT22;26951;47.338;9.196;2024-02-15T15:20:35;15.70;37.10
41220;DHT22;26951;47.338;9.196;2024-02-15T15:23:21;15.70;38.00
41220;DHT22;26951;47.338;9.196;2024-02-15T15:26:06;15.70;39.10
41220;DHT22;26951;47.338;9.196;2024-02-15T15:28:50;15.60;39.10
41220;DHT22;26951;47.338;9.196;2024-02-15T15:31:34;15.60;40.50
41220;DHT22;26951;47.338;9.196;2024-02-15T15:34:19;15.50;41.20
41220;DHT22;26951;47.338;9.196;2024-02-15T15:37:03;15.50;41.50
41220;DHT22;26951;47.338;9.196;2024-02-15T15:39:51;15.40;42.00
41220;DHT22;26951;47.338;9.196;2024-02-15T15:42:41;15.30;42.50
41220;DHT22;26951;47.338;9.196;2024-02-15T15:45:26;15.10;42.20
41220;DHT22;26951;47.338;9.196;2024-02-15T15:48:10;15.00;43.20
41220;DHT22;26951;47.338;9.196;2024-02-15T15:50:55;14.90;43.80
41220;DHT22;26951;47.338;9.196;2024-02-15T15:53:43;14.80;44.30
41220;DHT22;26951;47.338;9.196;2024-02-15T15:56:28;14.70;44.50
41220;DHT22;26951;47.338;9.196;2024-02-15T15:59:16;14.60;45.00
41220;DHT22;26951;47.338;9.196;2024-02-15T16:02:00;14.40;45.10
41220;DHT22;26951;47.338;9.196;2024-02-15T16:04:47;14.30;45.60
41220;DHT22;26951;47.338;9.196;2024-02-15T16:07:32;14.10;45.50
41220;DHT22;26951;47.338;9.196;2024-02-15T16:10:16;14.00;45.40
41220;DHT22;26951;47.338;9.196;2024-02-15T16:13:04;13.90;45.90
41220;DHT22;26951;47.338;9.196;2024-02-15T16:15:53;13.80;46.50
41220;DHT22;26951;47.338;9.196;2024-02-15T16:18:38;13.60;46.80
41220;DHT22;26951;47.338;9.196;2024-02-15T16:21:22;13.50;47.20
41220;DHT22;26951;47.338;9.196;2024-02-15T16:24:06;13.40;47.30
41220;DHT22;26951;47.338;9.196;2024-02-15T16:26:50;13.30;47.40
41220;DHT22;26951;47.338;9.196;2024-02-15T16:29:36;13.10;48.20
41220;DHT22;26951;47.338;9.196;2024-02-15T16:32:20;13.00;48.80
41220;DHT22;26951;47.338;9.196;2024-02-15T16:35:08;12.90;49.40
41220;DHT22;26951;47.338;9.196;2024-02-15T16:37:56;12.80;48.70
41220;DHT22;26951;47.338;9.196;2024-02-15T16:40:40;12.60;49.10
41220;DHT22;26951;47.338;9.196;2024-02-15T16:43:25;12.50;49.20
41220;DHT22;26951;47.338;9.196;2024-02-15T16:46:09;12.40;49.50
41220;DHT22;26951;47.338;9.196;2024-02-15T16:48:53;12.30;50.00
41220;DHT22;26951;47.338;9.196;2024-02-15T16:51:39;12.10;50.10
41220;DHT22;26951;47.338;9.196;2024-02-15T16:54:23;12.00;50.50
41220;DHT22;26951;47.338;9.196;2024-02-15T16:57:09;11.90;50.80
41220;DHT22;26951;47.338;9.196;2024-02-15T16:59:53;11.80;50.90
41220;DHT22;26951;47.338;9.196;2024-02-15T17:02:41;11.70;51.00
41220;DHT22;26951;47.338;9.196;2024-02-15T17:05:27;11.70;51.00
41220;DHT22;26951;47.338;9.196;2024-02-15T17:08:11;11.60;51.00
41220;DHT22;26951;47.338;9.196;2024-02-15T17:10:56;11.60;51.40
41220;DHT22;26951;47.338;9.196;2024-02-15T17:13:42;11.50;51.10
41220;DHT22;26951;47.338;9.196;2024-02-15T17:16:28;11.40;51.00
41220;DHT22;26951;47.338;9.196;2024-02-15T17:19:12;11.40;51.30
41220;DHT22;26951;47.338;9.196;2024-02-15T17:21:56;11.30;51.40
41220;DHT22;26951;47.338;9.196;2024-02-15T17:24:43;11.10;52.00
41220;DHT22;26951;47.338;9.196;2024-02-15T17:27:27;11.10;52.60
41220;DHT22;26951;47.338;9.196;2024-02-15T17:30:12;10.90;53.90
41220;DHT22;26951;47.338;9.196;2024-02-15T17:32:57;10.70;53.50
41220;DHT22;26951;47.338;9.196;2024-02-15T17:35:42;10.70;53.50
41220;DHT22;26951;47.338;9.196;2024-02-15T17:38:26;10.70;53.00
41220;DHT22;26951;47.338;9.196;2024-02-15T17:41:11;10.70;53.00
41220;DHT22;26951;47.338;9.196;2024-02-15T17:43:56;10.70;52.80
41220;DHT22;26951;47.338;9.196;2024-02-15T17:46:43;10.60;52.80